sensor_id;sensor_type;location;lat;lon;timestamp;pressure;altitude;pressure_sealevel;temperature;humidity
11347;BME280;5728;42.722;23.258;2023-02-14T00:00:01;96180.31;;;2.26;77.49
11347;BME280;5728;42.722;23.258;2023-02-14T00:02:28;96185.47;;;2.27;76.89
11347;BME280;5728;42.722;23.258;2023-02-14T00:04:56;96188.00;;;2.26;77.51
11347;BME280;5728;42.722;23.258;2023-02-14T00:07:22;96181.84;;;2.00;77.67
11347;BME280;5728;42.722;23.258;2023-02-14T00:09:49;96190.28;;;1.98;78.46
11347;BME280;5728;42.722;23.258;2023-02-14T00:12:16;96174.81;;;1.94;78.56
11347;BME280;5728;42.722;23.258;2023-02-14T00:14:43;96181.06;;;2.01;78.24
11347;BME280;5728;42.722;23.258;2023-02-14T00:17:27;96183.69;;;2.25;78.68
11347;BME280;5728;42.722;23.258;2023-02-14T00:19:53;96182.00;;;2.25;78.03
11347;BME280;5728;42.722;23.258;2023-02-14T00:22:21;96194.75;;;2.24;77.96
11347;BME280;5728;42.722;23.258;2023-02-14T00:24:48;96176.47;;;2.15;77.86
11347;BME280;5728;42.722;23.258;2023-02-14T00:27:15;96168.19;;;2.00;79.00
11347;BME280;5728;42.722;23.258;2023-02-14T00:29:41;96198.53;;;2.11;78.43
11347;BME280;5728;42.722;23.258;2023-02-14T00:32:08;96166.34;;;2.18;79.75
11347;BME280;5728;42.722;23.258;2023-02-14T00:34:35;96158.94;;;2.24;78.16
11347;BME280;5728;42.722;23.258;2023-02-14T00:37:02;96171.31;;;2.35;78.63
11347;BME280;5728;42.722;23.258;2023-02-14T00:39:30;96170.59;;;2.39;78.21
11347;BME280;5728;42.722;23.258;2023-02-14T00:41:57;96169.00;;;2.41;78.46
11347;BME280;5728;42.722;23.258;2023-02-14T00:44:23;96165.78;;;2.25;78.02
11347;BME280;5728;42.722;23.258;2023-02-14T00:46:50;96172.78;;;2.29;78.44
11347;BME280;5728;42.722;23.258;2023-02-14T00:49:17;96177.88;;;2.29;78.43
11347;BME280;5728;42.722;23.258;2023-02-14T00:51:44;96170.66;;;2.41;78.23
11347;BME280;5728;42.722;23.258;2023-02-14T00:54:11;96176.13;;;2.28;79.42
11347;BME280;5728;42.722;23.258;2023-02-14T00:56:39;96169.50;;;2.33;79.56
11347;BME280;5728;42.722;23.258;2023-02-14T00:59:05;96178.94;;;2.34;79.31
11347;BME280;5728;42.722;23.258;2023-02-14T01:01:32;96164.03;;;2.24;79.46
11347;BME280;5728;42.722;23.258;2023-02-14T01:03:59;96160.91;;;2.31;79.76
11347;BME280;5728;42.722;23.258;2023-02-14T01:06:26;96160.91;;;2.31;79.31
11347;BME280;5728;42.722;23.258;2023-02-14T01:08:52;96157.22;;;2.24;79.29
11347;BME280;5728;42.722;23.258;2023-02-14T01:11:21;96154.19;;;2.12;79.76
11347;BME280;5728;42.722;23.258;2023-02-14T01:13:50;96158.34;;;2.09;80.58
11347;BME280;5728;42.722;23.258;2023-02-14T01:16:19;96133.44;;;2.27;80.09
11347;BME280;5728;42.722;23.258;2023-02-14T01:18:47;96139.84;;;2.16;80.29
11347;BME280;5728;42.722;23.258;2023-02-14T01:21:17;96138.97;;;2.15;80.18
11347;BME280;5728;42.722;23.258;2023-02-14T01:23:44;96144.50;;;2.26;80.18
11347;BME280;5728;42.722;23.258;2023-02-14T01:26:12;96137.69;;;2.26;79.70
11347;BME280;5728;42.722;23.258;2023-02-14T01:28:39;96137.00;;;2.30;79.17
11347;BME280;5728;42.722;23.258;2023-02-14T01:31:11;96146.31;;;2.28;79.36
11347;BME280;5728;42.722;23.258;2023-02-14T01:33:39;96134.53;;;2.33;79.97
11347;BME280;5728;42.722;23.258;2023-02-14T01:36:06;96143.47;;;2.44;80.15
11347;BME280;5728;42.722;23.258;2023-02-14T01:38:39;96133.97;;;2.40;78.71
11347;BME280;5728;42.722;23.258;2023-02-14T01:41:06;96119.13;;;2.32;79.28
11347;BME280;5728;42.722;23.258;2023-02-14T01:43:48;96130.03;;;2.26;79.49
11347;BME280;5728;42.722;23.258;2023-02-14T01:46:16;96088.84;;;1.98;80.34
11347;BME280;5728;42.722;23.258;2023-02-14T01:48:43;96121.94;;;2.16;79.71
11347;BME280;5728;42.722;23.258;2023-02-14T01:51:11;96109.72;;;2.31;79.58
11347;BME280;5728;42.722;23.258;2023-02-14T01:53:39;96107.97;;;2.30;79.09
11347;BME280;5728;42.722;23.258;2023-02-14T01:56:09;96100.34;;;2.31;78.97
11347;BME280;5728;42.722;23.258;2023-02-14T01:58:41;96091.84;;;2.32;79.42
11347;BME280;5728;42.722;23.258;2023-02-14T02:01:11;96101.56;;;2.41;79.96
11347;BME280;5728;42.722;23.258;2023-02-14T02:03:43;96105.56;;;2.56;78.54
11347;BME280;5728;42.722;23.258;2023-02-14T02:06:14;96107.56;;;2.41;79.17
11347;BME280;5728;42.722;23.258;2023-02-14T02:08:47;96102.97;;;2.33;79.46
11347;BME280;5728;42.722;23.258;2023-02-14T02:11:14;96100.03;;;2.46;78.85
11347;BME280;5728;42.722;23.258;2023-02-14T02:13:41;96104.03;;;2.62;77.86
11347;BME280;5728;42.722;23.258;2023-02-14T02:16:18;96095.59;;;2.64;78.42
11347;BME280;5728;42.722;23.258;2023-02-14T02:19:00;96090.88;;;2.29;78.64
11347;BME280;5728;42.722;23.258;2023-02-14T02:21:45;96097.84;;;2.33;79.04
11347;BME280;5728;42.722;23.258;2023-02-14T02:24:23;96093.03;;;2.42;78.50
11347;BME280;5728;42.722;23.258;2023-02-14T02:27:26;96097.19;;;2.62;78.76
11347;BME280;5728;42.722;23.258;2023-02-14T02:30:33;96084.81;;;2.49;78.84
11347;BME280;5728;42.722;23.258;2023-02-14T02:33:32;96086.41;;;2.47;78.67
11347;BME280;5728;42.722;23.258;2023-02-14T02:39:20;96065.09;;;2.46;78.15
11347;BME280;5728;42.722;23.258;2023-02-14T02:42:00;96065.13;;;2.48;78.75
11347;BME280;5728;42.722;23.258;2023-02-14T02:44:39;96070.63;;;2.35;79.30
11347;BME280;5728;42.722;23.258;2023-02-14T02:47:15;96072.88;;;2.27;79.53
11347;BME280;5728;42.722;23.258;2023-02-14T02:49:51;96074.97;;;2.37;78.60
11347;BME280;5728;42.722;23.258;2023-02-14T02:52:41;96068.97;;;2.37;78.83
11347;BME280;5728;42.722;23.258;2023-02-14T02:55:35;96076.44;;;2.31;78.81
11347;BME280;5728;42.722;23.258;2023-02-14T02:58:19;96071.25;;;2.06;79.20
11347;BME280;5728;42.722;23.258;2023-02-14T03:00:49;96078.78;;;2.25;78.72
11347;BME280;5728;42.722;23.258;2023-02-14T03:03:18;96063.09;;;2.16;79.56
11347;BME280;5728;42.722;23.258;2023-02-14T03:06:03;96067.25;;;2.36;78.65
11347;BME280;5728;42.722;23.258;2023-02-14T03:08:31;96077.50;;;2.36;79.46
11347;BME280;5728;42.722;23.258;2023-02-14T03:10:58;96087.38;;;2.27;78.49
11347;BME280;5728;42.722;23.258;2023-02-14T03:16:34;96076.94;;;2.21;79.19
11347;BME280;5728;42.722;23.258;2023-02-14T03:19:25;96074.84;;;2.11;79.35
11347;BME280;5728;42.722;23.258;2023-02-14T03:22:20;96053.31;;;2.28;79.87
11347;BME280;5728;42.722;23.258;2023-02-14T03:24:55;96062.44;;;2.21;79.83
11347;BME280;5728;42.722;23.258;2023-02-14T03:27:25;96053.91;;;2.21;79.45
11347;BME280;5728;42.722;23.258;2023-02-14T03:29:59;96048.91;;;2.02;79.76
11347;BME280;5728;42.722;23.258;2023-02-14T03:32:33;96034.34;;;2.23;79.15
11347;BME280;5728;42.722;23.258;2023-02-14T03:35:08;96022.41;;;2.00;80.47
11347;BME280;5728;42.722;23.258;2023-02-14T03:37:39;96053.09;;;2.00;79.87
11347;BME280;5728;42.722;23.258;2023-02-14T03:40:12;96051.56;;;2.05;80.08
11347;BME280;5728;42.722;23.258;2023-02-14T03:42:42;96062.97;;;2.13;80.21
11347;BME280;5728;42.722;23.258;2023-02-14T03:45:17;96049.03;;;2.05;79.76
11347;BME280;5728;42.722;23.258;2023-02-14T03:47:47;96045.50;;;2.01;79.20
11347;BME280;5728;42.722;23.258;2023-02-14T03:50:18;96046.94;;;1.94;80.09
11347;BME280;5728;42.722;23.258;2023-02-14T03:52:45;96032.72;;;2.01;80.42
11347;BME280;5728;42.722;23.258;2023-02-14T03:55:20;96031.69;;;2.20;79.68
11347;BME280;5728;42.722;23.258;2023-02-14T03:57:53;96031.75;;;2.21;79.55
11347;BME280;5728;42.722;23.258;2023-02-14T04:00:21;96021.31;;;2.17;79.57
11347;BME280;5728;42.722;23.258;2023-02-14T04:02:53;96022.84;;;2.12;79.50
11347;BME280;5728;42.722;23.258;2023-02-14T04:05:24;96021.91;;;2.10;79.33
11347;BME280;5728;42.722;23.258;2023-02-14T04:07:52;96027.16;;;2.13;79.61
11347;BME280;5728;42.722;23.258;2023-02-14T04:10:21;96029.44;;;2.05;79.55
11347;BME280;5728;42.722;23.258;2023-02-14T04:12:49;96020.41;;;2.15;79.40
11347;BME280;5728;42.722;23.258;2023-02-14T04:15:16;96022.56;;;2.04;80.06
11347;BME280;5728;42.722;23.258;2023-02-14T04:17:42;96032.63;;;2.00;80.06
11347;BME280;5728;42.722;23.258;2023-02-14T04:20:27;96027.31;;;1.93;80.10
11347;BME280;5728;42.722;23.258;2023-02-14T04:22:54;96021.72;;;2.04;79.68
11347;BME280;5728;42.722;23.258;2023-02-14T04:25:22;96013.56;;;1.91;79.12
11347;BME280;5728;42.722;23.258;2023-02-14T04:27:49;96007.53;;;1.89;78.97
11347;BME280;5728;42.722;23.258;2023-02-14T04:30:16;96016.13;;;1.91;79.68
11347;BME280;5728;42.722;23.258;2023-02-14T04:32:45;96022.19;;;1.93;78.86
11347;BME280;5728;42.722;23.258;2023-02-14T04:35:12;96017.88;;;1.92;79.18
11347;BME280;5728;42.722;23.258;2023-02-14T04:37:38;96027.88;;;1.86;79.13
11347;BME280;5728;42.722;23.258;2023-02-14T04:40:06;96016.25;;;1.94;78.87
11347;BME280;5728;42.722;23.258;2023-02-14T04:42:35;96013.41;;;1.87;79.29
11347;BME280;5728;42.722;23.258;2023-02-14T04:45:01;96000.56;;;1.85;78.83
11347;BME280;5728;42.722;23.258;2023-02-14T04:47:28;96004.78;;;1.83;80.06
11347;BME280;5728;42.722;23.258;2023-02-14T04:49:55;95998.06;;;1.87;79.25
11347;BME280;5728;42.722;23.258;2023-02-14T04:52:22;95998.94;;;1.87;79.00
11347;BME280;5728;42.722;23.258;2023-02-14T04:54:48;95990.22;;;1.82;79.40
11347;BME280;5728;42.722;23.258;2023-02-14T04:57:15;95996.84;;;1.77;80.06
11347;BME280;5728;42.722;23.258;2023-02-14T04:59:43;95999.66;;;1.83;79.30
11347;BME280;5728;42.722;23.258;2023-02-14T05:02:10;95986.91;;;1.85;79.34
11347;BME280;5728;42.722;23.258;2023-02-14T05:04:37;95999.09;;;1.92;79.82
11347;BME280;5728;42.722;23.258;2023-02-14T05:07:03;96003.06;;;1.84;79.06
11347;BME280;5728;42.722;23.258;2023-02-14T05:09:30;96006.38;;;2.04;79.46
11347;BME280;5728;42.722;23.258;2023-02-14T05:11:57;95998.34;;;1.94;79.11
11347;BME280;5728;42.722;23.258;2023-02-14T05:14:24;95999.94;;;1.91;79.60
11347;BME280;5728;42.722;23.258;2023-02-14T05:16:52;95990.66;;;1.94;79.75
11347;BME280;5728;42.722;23.258;2023-02-14T05:19:18;96005.22;;;1.96;79.26
11347;BME280;5728;42.722;23.258;2023-02-14T05:21:45;96002.41;;;1.89;78.55
11347;BME280;5728;42.722;23.258;2023-02-14T05:24:12;95995.91;;;1.98;79.52
11347;BME280;5728;42.722;23.258;2023-02-14T05:26:39;95990.56;;;1.91;79.04
11347;BME280;5728;42.722;23.258;2023-02-14T05:29:06;96003.34;;;2.14;78.05
11347;BME280;5728;42.722;23.258;2023-02-14T05:31:33;95997.69;;;2.00;78.88
11347;BME280;5728;42.722;23.258;2023-02-14T05:34:01;96004.00;;;1.86;77.92
11347;BME280;5728;42.722;23.258;2023-02-14T05:36:28;95996.66;;;1.95;79.48
11347;BME280;5728;42.722;23.258;2023-02-14T05:38:54;95999.19;;;1.93;79.24
11347;BME280;5728;42.722;23.258;2023-02-14T05:41:21;95989.28;;;2.03;78.16
11347;BME280;5728;42.722;23.258;2023-02-14T05:43:48;95993.50;;;2.02;79.38
11347;BME280;5728;42.722;23.258;2023-02-14T05:46:14;95996.19;;;2.05;78.80
11347;BME280;5728;42.722;23.258;2023-02-14T05:48:41;95981.19;;;1.92;79.46
11347;BME280;5728;42.722;23.258;2023-02-14T05:51:10;95988.84;;;1.90;79.77
11347;BME280;5728;42.722;23.258;2023-02-14T05:53:37;95994.97;;;1.96;78.88
11347;BME280;5728;42.722;23.258;2023-02-14T05:56:04;95992.06;;;1.86;79.55
11347;BME280;5728;42.722;23.258;2023-02-14T05:58:31;95998.03;;;1.85;79.86
11347;BME280;5728;42.722;23.258;2023-02-14T06:00:59;95988.53;;;1.83;79.24
11347;BME280;5728;42.722;23.258;2023-02-14T06:03:26;95991.22;;;1.86;80.14
11347;BME280;5728;42.722;23.258;2023-02-14T06:05:53;95992.00;;;2.07;79.38
11347;BME280;5728;42.722;23.258;2023-02-14T06:08:21;95985.44;;;2.14;78.65
11347;BME280;5728;42.722;23.258;2023-02-14T06:10:48;95984.38;;;2.09;78.85
11347;BME280;5728;42.722;23.258;2023-02-14T06:13:15;96006.94;;;2.19;78.37
11347;BME280;5728;42.722;23.258;2023-02-14T06:15:41;95993.38;;;2.21;78.86
11347;BME280;5728;42.722;23.258;2023-02-14T06:18:08;96005.41;;;2.24;79.28
11347;BME280;5728;42.722;23.258;2023-02-14T06:20:35;95996.72;;;2.20;78.48
11347;BME280;5728;42.722;23.258;2023-02-14T06:23:01;96000.63;;;2.34;79.33
11347;BME280;5728;42.722;23.258;2023-02-14T06:25:29;95997.00;;;2.51;78.47
11347;BME280;5728;42.722;23.258;2023-02-14T06:27:57;96010.38;;;2.68;77.66
11347;BME280;5728;42.722;23.258;2023-02-14T06:30:24;96007.69;;;2.65;77.81
11347;BME280;5728;42.722;23.258;2023-02-14T06:32:51;95999.72;;;2.56;77.45
11347;BME280;5728;42.722;23.258;2023-02-14T06:35:18;96001.41;;;2.55;77.56
11347;BME280;5728;42.722;23.258;2023-02-14T06:37:44;96009.19;;;2.58;78.06
11347;BME280;5728;42.722;23.258;2023-02-14T06:40:12;96002.88;;;2.49;77.64
11347;BME280;5728;42.722;23.258;2023-02-14T06:42:40;96002.97;;;2.52;77.94
11347;BME280;5728;42.722;23.258;2023-02-14T06:45:08;95993.75;;;2.57;78.04
11347;BME280;5728;42.722;23.258;2023-02-14T06:47:34;95993.47;;;2.73;78.49
11347;BME280;5728;42.722;23.258;2023-02-14T06:50:01;95994.91;;;2.90;77.65
11347;BME280;5728;42.722;23.258;2023-02-14T06:52:29;95971.44;;;2.78;77.67
11347;BME280;5728;42.722;23.258;2023-02-14T06:54:56;95989.88;;;2.93;78.48
11347;BME280;5728;42.722;23.258;2023-02-14T06:57:22;95975.31;;;2.92;78.08
11347;BME280;5728;42.722;23.258;2023-02-14T06:59:50;95981.22;;;2.90;78.27
11347;BME280;5728;42.722;23.258;2023-02-14T07:02:17;95975.31;;;2.92;79.00
11347;BME280;5728;42.722;23.258;2023-02-14T07:04:44;95962.56;;;2.94;78.75
11347;BME280;5728;42.722;23.258;2023-02-14T07:07:11;95980.66;;;3.52;77.69
11347;BME280;5728;42.722;23.258;2023-02-14T07:09:38;95971.09;;;3.19;79.00
11347;BME280;5728;42.722;23.258;2023-02-14T07:12:05;95965.84;;;3.43;78.18
11347;BME280;5728;42.722;23.258;2023-02-14T07:14:31;95964.44;;;3.25;79.13
11347;BME280;5728;42.722;23.258;2023-02-14T07:17:00;95939.88;;;3.04;78.71
11347;BME280;5728;42.722;23.258;2023-02-14T07:19:26;95972.34;;;3.05;79.93
11347;BME280;5728;42.722;23.258;2023-02-14T07:21:53;95982.84;;;3.13;81.12
11347;BME280;5728;42.722;23.258;2023-02-14T07:24:20;95979.38;;;3.12;81.35
11347;BME280;5728;42.722;23.258;2023-02-14T07:26:46;95988.03;;;3.14;81.93
11347;BME280;5728;42.722;23.258;2023-02-14T07:29:13;95976.75;;;3.09;82.12
11347;BME280;5728;42.722;23.258;2023-02-14T07:31:40;95993.22;;;3.17;82.69
11347;BME280;5728;42.722;23.258;2023-02-14T07:34:08;95993.31;;;3.20;82.06
11347;BME280;5728;42.722;23.258;2023-02-14T07:36:36;95979.50;;;3.15;82.55
11347;BME280;5728;42.722;23.258;2023-02-14T07:39:03;95978.03;;;3.22;82.45
11347;BME280;5728;42.722;23.258;2023-02-14T07:41:29;95967.81;;;3.23;83.29
11347;BME280;5728;42.722;23.258;2023-02-14T07:43:56;95981.59;;;3.27;83.41
11347;BME280;5728;42.722;23.258;2023-02-14T07:46:23;95981.63;;;3.29;82.56
11347;BME280;5728;42.722;23.258;2023-02-14T07:48:50;95998.00;;;3.32;83.18
11347;BME280;5728;42.722;23.258;2023-02-14T07:51:18;95978.97;;;3.26;83.61
11347;BME280;5728;42.722;23.258;2023-02-14T07:53:45;95967.06;;;3.28;83.17
11347;BME280;5728;42.722;23.258;2023-02-14T07:56:12;95995.50;;;3.35;82.88
11347;BME280;5728;42.722;23.258;2023-02-14T07:58:39;95998.38;;;3.44;83.46
11347;BME280;5728;42.722;23.258;2023-02-14T08:01:06;96008.69;;;3.20;83.66
11347;BME280;5728;42.722;23.258;2023-02-14T08:03:33;96008.69;;;3.20;83.60
11347;BME280;5728;42.722;23.258;2023-02-14T08:05:59;96004.81;;;3.32;84.12
11347;BME280;5728;42.722;23.258;2023-02-14T08:08:29;96012.00;;;3.16;83.23
11347;BME280;5728;42.722;23.258;2023-02-14T08:10:56;96008.81;;;3.23;82.63
11347;BME280;5728;42.722;23.258;2023-02-14T08:13:24;96013.41;;;3.07;83.53
11347;BME280;5728;42.722;23.258;2023-02-14T08:15:50;96021.13;;;3.08;85.26
11347;BME280;5728;42.722;23.258;2023-02-14T08:18:35;96025.38;;;3.08;84.98
11347;BME280;5728;42.722;23.258;2023-02-14T08:21:03;96012.94;;;2.93;84.29
11347;BME280;5728;42.722;23.258;2023-02-14T08:23:31;96012.53;;;3.06;84.27
11347;BME280;5728;42.722;23.258;2023-02-14T08:25:58;96024.06;;;3.20;84.88
11347;BME280;5728;42.722;23.258;2023-02-14T08:28:25;96030.75;;;3.15;83.21
11347;BME280;5728;42.722;23.258;2023-02-14T08:30:53;96027.16;;;3.10;83.71
11347;BME280;5728;42.722;23.258;2023-02-14T08:33:20;96024.50;;;3.07;84.48
11347;BME280;5728;42.722;23.258;2023-02-14T08:35:47;96018.16;;;2.96;84.67
11347;BME280;5728;42.722;23.258;2023-02-14T08:38:14;96019.16;;;3.27;85.32
11347;BME280;5728;42.722;23.258;2023-02-14T08:40:42;96023.41;;;3.26;85.00
11347;BME280;5728;42.722;23.258;2023-02-14T08:43:09;96016.66;;;3.03;85.06
11347;BME280;5728;42.722;23.258;2023-02-14T08:45:36;96016.31;;;2.92;85.66
11347;BME280;5728;42.722;23.258;2023-02-14T08:48:06;96035.88;;;2.90;86.69
11347;BME280;5728;42.722;23.258;2023-02-14T08:50:33;96007.53;;;2.84;86.28
11347;BME280;5728;42.722;23.258;2023-02-14T08:53:00;96008.72;;;2.95;86.07
11347;BME280;5728;42.722;23.258;2023-02-14T08:55:27;96022.97;;;2.87;85.71
11347;BME280;5728;42.722;23.258;2023-02-14T08:57:56;96021.75;;;3.01;85.23
11347;BME280;5728;42.722;23.258;2023-02-14T09:00:24;96025.78;;;2.95;85.71
11347;BME280;5728;42.722;23.258;2023-02-14T09:02:52;96030.84;;;3.18;85.87
11347;BME280;5728;42.722;23.258;2023-02-14T09:05:19;96030.13;;;2.97;85.34
11347;BME280;5728;42.722;23.258;2023-02-14T09:07:47;96007.03;;;2.96;84.81
11347;BME280;5728;42.722;23.258;2023-02-14T09:10:14;96022.25;;;3.16;86.11
11347;BME280;5728;42.722;23.258;2023-02-14T09:12:43;96014.66;;;3.19;84.78
11347;BME280;5728;42.722;23.258;2023-02-14T09:15:12;96019.09;;;2.98;85.00
11347;BME280;5728;42.722;23.258;2023-02-14T09:17:39;96006.63;;;3.09;84.52
11347;BME280;5728;42.722;23.258;2023-02-14T09:20:07;96008.41;;;3.11;85.36
11347;BME280;5728;42.722;23.258;2023-02-14T09:22:35;96005.00;;;3.12;84.26
11347;BME280;5728;42.722;23.258;2023-02-14T09:25:01;96012.00;;;3.16;85.08
11347;BME280;5728;42.722;23.258;2023-02-14T09:27:29;96008.00;;;3.25;84.70
11347;BME280;5728;42.722;23.258;2023-02-14T09:29:56;96018.16;;;2.96;85.01
11347;BME280;5728;42.722;23.258;2023-02-14T09:32:24;96021.84;;;3.04;85.17
11347;BME280;5728;42.722;23.258;2023-02-14T09:34:53;95998.44;;;2.94;84.77
11347;BME280;5728;42.722;23.258;2023-02-14T09:37:37;95997.97;;;3.05;84.99
11347;BME280;5728;42.722;23.258;2023-02-14T09:40:22;95998.53;;;2.97;86.00
11347;BME280;5728;42.722;23.258;2023-02-14T09:42:58;96006.16;;;2.95;84.45
11347;BME280;5728;42.722;23.258;2023-02-14T09:45:28;96002.31;;;3.08;84.90
11347;BME280;5728;42.722;23.258;2023-02-14T09:48:01;96017.41;;;2.99;85.15
11347;BME280;5728;42.722;23.258;2023-02-14T09:50:32;96008.69;;;2.94;86.31
11347;BME280;5728;42.722;23.258;2023-02-14T09:53:04;95997.41;;;2.89;86.50
11347;BME280;5728;42.722;23.258;2023-02-14T09:55:36;95987.97;;;2.88;85.86
11347;BME280;5728;42.722;23.258;2023-02-14T09:58:12;95997.56;;;2.93;85.13
11347;BME280;5728;42.722;23.258;2023-02-14T10:00:44;95988.22;;;2.95;85.18
11347;BME280;5728;42.722;23.258;2023-02-14T10:03:36;95991.81;;;3.00;84.85
11347;BME280;5728;42.722;23.258;2023-02-14T10:06:11;96004.72;;;3.03;85.05
11347;BME280;5728;42.722;23.258;2023-02-14T10:08:56;95982.59;;;3.05;84.41
11347;BME280;5728;42.722;23.258;2023-02-14T10:11:27;95984.19;;;3.02;85.24
11347;BME280;5728;42.722;23.258;2023-02-14T10:13:58;95973.69;;;2.94;85.10
11347;BME280;5728;42.722;23.258;2023-02-14T10:16:30;95992.41;;;2.92;85.19
11347;BME280;5728;42.722;23.258;2023-02-14T10:19:04;95972.50;;;2.85;86.22
11347;BME280;5728;42.722;23.258;2023-02-14T10:21:35;95982.56;;;3.04;85.10
11347;BME280;5728;42.722;23.258;2023-02-14T10:24:10;95989.34;;;3.03;84.55
11347;BME280;5728;42.722;23.258;2023-02-14T10:26:39;95982.09;;;2.90;84.68
11347;BME280;5728;42.722;23.258;2023-02-14T10:29:13;95974.16;;;2.83;84.97
11347;BME280;5728;42.722;23.258;2023-02-14T10:31:45;95975.94;;;2.85;84.80
11347;BME280;5728;42.722;23.258;2023-02-14T10:34:26;95972.25;;;2.77;85.05
11347;BME280;5728;42.722;23.258;2023-02-14T10:37:13;95979.38;;;2.86;84.94
11347;BME280;5728;42.722;23.258;2023-02-14T10:40:17;95982.09;;;2.90;84.53
11347;BME280;5728;42.722;23.258;2023-02-14T10:42:52;95974.91;;;3.05;84.13
11347;BME280;5728;42.722;23.258;2023-02-14T10:45:27;95966.06;;;2.96;84.33
11347;BME280;5728;42.722;23.258;2023-02-14T10:48:00;95981.22;;;2.90;84.58
11347;BME280;5728;42.722;23.258;2023-02-14T10:50:37;95985.31;;;2.85;84.49
11347;BME280;5728;42.722;23.258;2023-02-14T10:53:13;95976.31;;;2.96;84.22
11347;BME280;5728;42.722;23.258;2023-02-14T10:55:46;95973.97;;;3.03;82.89
11347;BME280;5728;42.722;23.258;2023-02-14T10:58:16;95956.34;;;3.12;82.60
11347;BME280;5728;42.722;23.258;2023-02-14T11:00:52;95965.19;;;2.95;82.57
11347;BME280;5728;42.722;23.258;2023-02-14T11:03:21;95960.16;;;2.98;81.42
11347;BME280;5728;42.722;23.258;2023-02-14T11:05:50;95952.97;;;3.13;81.51
11347;BME280;5728;42.722;23.258;2023-02-14T11:08:24;95951.84;;;3.05;81.23
11347;BME280;5728;42.722;23.258;2023-02-14T11:10:53;95954.53;;;3.10;81.37
11347;BME280;5728;42.722;23.258;2023-02-14T11:13:33;95951.41;;;3.18;80.56
11347;BME280;5728;42.722;23.258;2023-02-14T11:16:02;95956.41;;;3.14;81.43
11347;BME280;5728;42.722;23.258;2023-02-14T11:18:30;95958.81;;;3.09;80.25
11347;BME280;5728;42.722;23.258;2023-02-14T11:21:10;95952.22;;;3.17;81.28
11347;BME280;5728;42.722;23.258;2023-02-14T11:23:39;95937.78;;;3.19;80.14
11347;BME280;5728;42.722;23.258;2023-02-14T11:26:11;95948.28;;;3.27;80.36
11347;BME280;5728;42.722;23.258;2023-02-14T11:28:48;95939.16;;;3.37;79.19
11347;BME280;5728;42.722;23.258;2023-02-14T11:31:24;95925.97;;;3.25;79.56
11347;BME280;5728;42.722;23.258;2023-02-14T11:33:51;95928.41;;;3.48;79.93
11347;BME280;5728;42.722;23.258;2023-02-14T11:36:20;95933.81;;;3.57;78.07
11347;BME280;5728;42.722;23.258;2023-02-14T11:38:54;95921.56;;;3.77;77.11
11347;BME280;5728;42.722;23.258;2023-02-14T11:41:21;95926.50;;;3.71;76.69
11347;BME280;5728;42.722;23.258;2023-02-14T11:43:48;95921.91;;;3.89;76.02
11347;BME280;5728;42.722;23.258;2023-02-14T11:46:25;95933.38;;;3.72;76.07
11347;BME280;5728;42.722;23.258;2023-02-14T11:48:58;95901.44;;;3.61;75.66
11347;BME280;5728;42.722;23.258;2023-02-14T11:51:30;95916.22;;;3.69;76.47
11347;BME280;5728;42.722;23.258;2023-02-14T11:53:59;95909.63;;;3.77;75.96
11347;BME280;5728;42.722;23.258;2023-02-14T11:57:15;95911.75;;;3.62;75.57
11347;BME280;5728;42.722;23.258;2023-02-14T12:03:21;95902.41;;;3.66;75.68
11347;BME280;5728;42.722;23.258;2023-02-14T12:05:51;95897.28;;;3.66;76.94
11347;BME280;5728;42.722;23.258;2023-02-14T12:08:26;95901.13;;;3.80;75.89
11347;BME280;5728;42.722;23.258;2023-02-14T12:11:03;95892.50;;;3.78;75.58
11347;BME280;5728;42.722;23.258;2023-02-14T12:13:31;95898.28;;;3.71;76.42
11347;BME280;5728;42.722;23.258;2023-02-14T12:15:58;95892.59;;;3.81;75.84
11347;BME280;5728;42.722;23.258;2023-02-14T12:18:42;95883.22;;;3.81;75.41
11347;BME280;5728;42.722;23.258;2023-02-14T12:21:22;95888.03;;;3.71;76.34
11347;BME280;5728;42.722;23.258;2023-02-14T12:23:58;95884.66;;;3.72;76.33
11347;BME280;5728;42.722;23.258;2023-02-14T12:26:30;95889.56;;;3.94;76.67
11347;BME280;5728;42.722;23.258;2023-02-14T12:29:08;95872.06;;;3.81;75.47
11347;BME280;5728;42.722;23.258;2023-02-14T12:31:36;95893.66;;;3.88;75.78
11347;BME280;5728;42.722;23.258;2023-02-14T12:34:05;95873.97;;;3.88;76.29
11347;BME280;5728;42.722;23.258;2023-02-14T12:36:46;95869.44;;;4.09;75.29
11347;BME280;5728;42.722;23.258;2023-02-14T12:39:23;95875.53;;;4.13;75.75
11347;BME280;5728;42.722;23.258;2023-02-14T12:42:04;95881.38;;;4.07;75.69
11347;BME280;5728;42.722;23.258;2023-02-14T12:44:43;95875.84;;;3.94;76.39
11347;BME280;5728;42.722;23.258;2023-02-14T12:47:17;95864.22;;;4.06;75.17
11347;BME280;5728;42.722;23.258;2023-02-14T12:50:09;95864.41;;;4.12;75.16
11347;BME280;5728;42.722;23.258;2023-02-14T12:53:06;95866.66;;;4.02;74.98
11347;BME280;5728;42.722;23.258;2023-02-14T12:55:48;95870.06;;;4.01;75.92
11347;BME280;5728;42.722;23.258;2023-02-14T12:58:26;95878.69;;;4.03;76.61
11347;BME280;5728;42.722;23.258;2023-02-14T13:01:04;95869.31;;;4.05;76.08
11347;BME280;5728;42.722;23.258;2023-02-14T13:06:58;95861.72;;;3.78;77.15
11347;BME280;5728;42.722;23.258;2023-02-14T13:09:34;95859.38;;;3.85;78.54
11347;BME280;5728;42.722;23.258;2023-02-14T13:12:13;95869.41;;;3.78;77.57
11347;BME280;5728;42.722;23.258;2023-02-14T13:14:51;95866.38;;;3.91;78.11
11347;BME280;5728;42.722;23.258;2023-02-14T13:17:25;95849.91;;;3.83;77.99
11347;BME280;5728;42.722;23.258;2023-02-14T13:20:05;95854.91;;;3.78;78.65
11347;BME280;5728;42.722;23.258;2023-02-14T13:22:39;95855.03;;;3.83;78.09
11347;BME280;5728;42.722;23.258;2023-02-14T13:25:15;95851.81;;;3.90;78.08
11347;BME280;5728;42.722;23.258;2023-02-14T13:27:48;95843.06;;;3.82;78.15
11347;BME280;5728;42.722;23.258;2023-02-14T13:30:22;95856.88;;;3.87;77.80
11347;BME280;5728;42.722;23.258;2023-02-14T13:32:52;95855.44;;;3.98;77.81
11347;BME280;5728;42.722;23.258;2023-02-14T13:35:21;95843.19;;;3.88;79.04
11347;BME280;5728;42.722;23.258;2023-02-14T13:37:53;95844.81;;;3.84;78.43
11347;BME280;5728;42.722;23.258;2023-02-14T13:40:23;95850.41;;;4.01;78.25
11347;BME280;5728;42.722;23.258;2023-02-14T13:42:55;95844.06;;;3.88;78.13